sensor_id;sensor_type;location;lat;lon;timestamp;pressure;altitude;pressure_sealevel;temperature;humidity
47080;BME280;33067;49.296;14.470;2024-03-08T00:01:22;97262.93;;;5.89;40.19
47080;BME280;33067;49.296;14.470;2024-03-08T00:03:46;97260.41;;;5.84;40.33
47080;BME280;33067;49.296;14.470;2024-03-08T00:06:12;97262.30;;;5.80;40.17
47080;BME280;33067;49.296;14.470;2024-03-08T00:08:37;97262.34;;;6.15;39.85
47080;BME280;33067;49.296;14.470;2024-03-08T00:11:02;97261.19;;;6.41;39.78
47080;BME280;33067;49.296;14.470;2024-03-08T00:13:29;97262.58;;;6.21;39.93
47080;BME280;33067;49.296;14.470;2024-03-08T00:15:53;97259.91;;;6.25;39.95
47080;BME280;33067;49.296;14.470;2024-03-08T00:18:19;97257.04;;;5.77;40.21
47080;BME280;33067;49.296;14.470;2024-03-08T00:20:45;97259.09;;;5.86;40.46
47080;BME280;33067;49.296;14.470;2024-03-08T00:23:10;97256.30;;;5.56;40.92
47080;BME280;33067;49.296;14.470;2024-03-08T00:25:35;97256.28;;;6.05;40.25
47080;BME280;33067;49.296;14.470;2024-03-08T00:28:01;97254.15;;;5.94;40.41
47080;BME280;33067;49.296;14.470;2024-03-08T00:30:26;97249.57;;;6.02;40.35
47080;BME280;33067;49.296;14.470;2024-03-08T00:32:52;97249.07;;;5.94;40.41
47080;BME280;33067;49.296;14.470;2024-03-08T00:35:19;97250.62;;;4.76;42.70
47080;BME280;33067;49.296;14.470;2024-03-08T00:37:43;97249.95;;;5.48;41.60
47080;BME280;33067;49.296;14.470;2024-03-08T00:40:09;97248.97;;;5.33;42.12
47080;BME280;33067;49.296;14.470;2024-03-08T00:42:36;97248.16;;;4.95;41.91
47080;BME280;33067;49.296;14.470;2024-03-08T00:45:00;97253.74;;;4.45;43.62
47080;BME280;33067;49.296;14.470;2024-03-08T00:47:25;97251.06;;;4.69;43.55
47080;BME280;33067;49.296;14.470;2024-03-08T00:49:51;97248.44;;;5.04;42.43
47080;BME280;33067;49.296;14.470;2024-03-08T00:52:18;97250.95;;;5.06;42.74
47080;BME280;33067;49.296;14.470;2024-03-08T00:54:42;97244.73;;;4.61;43.24
47080;BME280;33067;49.296;14.470;2024-03-08T00:57:08;97247.77;;;4.62;43.43
47080;BME280;33067;49.296;14.470;2024-03-08T00:59:33;97241.31;;;5.25;42.54
47080;BME280;33067;49.296;14.470;2024-03-08T01:01:59;97242.22;;;5.25;42.46
47080;BME280;33067;49.296;14.470;2024-03-08T01:04:24;97238.47;;;5.12;42.27
47080;BME280;33067;49.296;14.470;2024-03-08T01:06:49;97243.54;;;5.52;41.99
47080;BME280;33067;49.296;14.470;2024-03-08T01:09:15;97239.40;;;5.05;42.93
47080;BME280;33067;49.296;14.470;2024-03-08T01:11:40;97238.27;;;5.36;42.57
47080;BME280;33067;49.296;14.470;2024-03-08T01:14:06;97237.26;;;5.32;42.71
47080;BME280;33067;49.296;14.470;2024-03-08T01:16:31;97232.62;;;5.57;42.22
47080;BME280;33067;49.296;14.470;2024-03-08T01:18:56;97234.29;;;5.35;42.00
47080;BME280;33067;49.296;14.470;2024-03-08T01:21:21;97235.29;;;5.15;42.75
47080;BME280;33067;49.296;14.470;2024-03-08T01:23:46;97234.53;;;4.70;43.01
47080;BME280;33067;49.296;14.470;2024-03-08T01:26:12;97226.88;;;5.59;42.29
47080;BME280;33067;49.296;14.470;2024-03-08T01:28:38;97227.37;;;5.18;42.05
47080;BME280;33067;49.296;14.470;2024-03-08T01:31:03;97222.38;;;5.54;41.80
47080;BME280;33067;49.296;14.470;2024-03-08T01:33:29;97218.08;;;5.44;41.68
47080;BME280;33067;49.296;14.470;2024-03-08T01:35:54;97216.44;;;5.70;42.15
47080;BME280;33067;49.296;14.470;2024-03-08T01:38:20;97212.84;;;5.64;41.87
47080;BME280;33067;49.296;14.470;2024-03-08T01:40:45;97207.61;;;5.20;42.22
47080;BME280;33067;49.296;14.470;2024-03-08T01:43:18;97213.46;;;5.39;42.50
47080;BME280;33067;49.296;14.470;2024-03-08T01:45:37;97210.32;;;5.20;42.83
47080;BME280;33067;49.296;14.470;2024-03-08T01:48:01;97208.80;;;4.68;43.36
47080;BME280;33067;49.296;14.470;2024-03-08T01:50:28;97205.75;;;5.19;42.91
47080;BME280;33067;49.296;14.470;2024-03-08T01:52:51;97204.20;;;5.05;43.02
47080;BME280;33067;49.296;14.470;2024-03-08T01:55:18;97195.96;;;5.37;42.69
47080;BME280;33067;49.296;14.470;2024-03-08T01:57:42;97200.54;;;5.07;42.97
47080;BME280;33067;49.296;14.470;2024-03-08T02:02:33;97201.17;;;4.72;43.24
47080;BME280;33067;49.296;14.470;2024-03-08T02:04:58;97198.85;;;5.18;43.02
47080;BME280;33067;49.296;14.470;2024-03-08T02:07:23;97198.69;;;4.97;43.11
47080;BME280;33067;49.296;14.470;2024-03-08T02:09:48;97192.22;;;5.33;42.62
47080;BME280;33067;49.296;14.470;2024-03-08T02:12:14;97196.16;;;4.50;43.51
47080;BME280;33067;49.296;14.470;2024-03-08T02:14:39;97189.53;;;5.07;42.63
47080;BME280;33067;49.296;14.470;2024-03-08T02:17:05;97191.05;;;5.10;43.00
47080;BME280;33067;49.296;14.470;2024-03-08T02:19:30;97190.01;;;4.75;43.56
47080;BME280;33067;49.296;14.470;2024-03-08T02:21:56;97186.32;;;4.49;44.22
47080;BME280;33067;49.296;14.470;2024-03-08T02:24:21;97186.32;;;4.64;43.98
47080;BME280;33067;49.296;14.470;2024-03-08T02:26:47;97180.35;;;4.68;43.35
47080;BME280;33067;49.296;14.470;2024-03-08T02:29:12;97180.36;;;4.63;44.07
47080;BME280;33067;49.296;14.470;2024-03-08T02:31:38;97177.87;;;4.88;43.27
47080;BME280;33067;49.296;14.470;2024-03-08T02:34:03;97177.48;;;4.97;43.22
47080;BME280;33067;49.296;14.470;2024-03-08T02:36:29;97173.36;;;4.86;43.27
47080;BME280;33067;49.296;14.470;2024-03-08T02:38:55;97176.02;;;4.78;43.55
47080;BME280;33067;49.296;14.470;2024-03-08T02:41:20;97171.24;;;4.98;43.38
47080;BME280;33067;49.296;14.470;2024-03-08T02:43:45;97169.01;;;5.04;43.28
47080;BME280;33067;49.296;14.470;2024-03-08T02:46:11;97168.44;;;5.21;42.97
47080;BME280;33067;49.296;14.470;2024-03-08T02:48:36;97166.84;;;5.37;42.57
47080;BME280;33067;49.296;14.470;2024-03-08T02:51:02;97166.24;;;5.52;42.55
47080;BME280;33067;49.296;14.470;2024-03-08T02:53:27;97163.87;;;5.41;42.41
47080;BME280;33067;49.296;14.470;2024-03-08T02:55:53;97159.65;;;5.38;42.86
47080;BME280;33067;49.296;14.470;2024-03-08T02:58:18;97158.46;;;5.31;42.54
47080;BME280;33067;49.296;14.470;2024-03-08T03:00:44;97156.25;;;4.96;42.66
47080;BME280;33067;49.296;14.470;2024-03-08T03:03:09;97157.85;;;5.27;42.53
47080;BME280;33067;49.296;14.470;2024-03-08T03:05:35;97150.34;;;4.95;43.47
47080;BME280;33067;49.296;14.470;2024-03-08T03:08:00;97147.13;;;4.99;43.00
47080;BME280;33067;49.296;14.470;2024-03-08T03:13:00;97147.30;;;5.63;41.13
47080;BME280;33067;49.296;14.470;2024-03-08T03:15:26;97144.98;;;6.20;40.91
47080;BME280;33067;49.296;14.470;2024-03-08T03:17:52;97143.12;;;6.17;41.20
47080;BME280;33067;49.296;14.470;2024-03-08T03:20:17;97143.74;;;6.05;41.06
47080;BME280;33067;49.296;14.470;2024-03-08T03:22:42;97142.36;;;6.23;41.11
47080;BME280;33067;49.296;14.470;2024-03-08T03:25:08;97143.77;;;5.94;41.42
47080;BME280;33067;49.296;14.470;2024-03-08T03:27:33;97145.19;;;6.04;41.66
47080;BME280;33067;49.296;14.470;2024-03-08T03:29:59;97142.28;;;6.39;41.14
47080;BME280;33067;49.296;14.470;2024-03-08T03:32:24;97143.82;;;5.85;42.08
47080;BME280;33067;49.296;14.470;2024-03-08T03:34:49;97142.62;;;5.53;42.23
47080;BME280;33067;49.296;14.470;2024-03-08T03:37:15;97144.41;;;5.99;41.46
47080;BME280;33067;49.296;14.470;2024-03-08T03:39:40;97144.37;;;4.94;42.93
47080;BME280;33067;49.296;14.470;2024-03-08T03:42:06;97142.39;;;5.38;42.44
47080;BME280;33067;49.296;14.470;2024-03-08T03:44:31;97139.24;;;5.68;42.74
47080;BME280;33067;49.296;14.470;2024-03-08T03:46:56;97141.18;;;5.82;42.56
47080;BME280;33067;49.296;14.470;2024-03-08T03:49:22;97141.05;;;5.70;42.69
47080;BME280;33067;49.296;14.470;2024-03-08T03:51:47;97142.90;;;4.93;43.72
47080;BME280;33067;49.296;14.470;2024-03-08T03:54:13;97144.28;;;5.09;43.39
47080;BME280;33067;49.296;14.470;2024-03-08T03:56:39;97146.55;;;4.92;43.62
47080;BME280;33067;49.296;14.470;2024-03-08T03:59:04;97149.50;;;4.81;43.21
47080;BME280;33067;49.296;14.470;2024-03-08T04:01:30;97149.51;;;4.93;43.70
47080;BME280;33067;49.296;14.470;2024-03-08T04:03:55;97151.77;;;4.81;43.80
47080;BME280;33067;49.296;14.470;2024-03-08T04:06:20;97155.53;;;5.03;43.44
47080;BME280;33067;49.296;14.470;2024-03-08T04:08:46;97157.07;;;5.02;43.31
47080;BME280;33067;49.296;14.470;2024-03-08T04:11:11;97153.37;;;5.23;43.71
47080;BME280;33067;49.296;14.470;2024-03-08T04:13:37;97157.04;;;4.43;44.60
47080;BME280;33067;49.296;14.470;2024-03-08T04:16:03;97153.96;;;4.52;44.31
47080;BME280;33067;49.296;14.470;2024-03-08T04:18:28;97153.69;;;4.65;44.51
47080;BME280;33067;49.296;14.470;2024-03-08T04:20:54;97156.49;;;4.76;44.75
47080;BME280;33067;49.296;14.470;2024-03-08T04:23:19;97156.39;;;4.25;45.93
47080;BME280;33067;49.296;14.470;2024-03-08T04:25:44;97148.56;;;4.43;46.18
47080;BME280;33067;49.296;14.470;2024-03-08T04:28:09;97151.48;;;4.49;45.90
47080;BME280;33067;49.296;14.470;2024-03-08T04:30:35;97150.38;;;4.30;46.46
47080;BME280;33067;49.296;14.470;2024-03-08T04:33:00;97149.25;;;3.60;47.52
47080;BME280;33067;49.296;14.470;2024-03-08T04:35:26;97151.33;;;3.89;46.48
47080;BME280;33067;49.296;14.470;2024-03-08T04:37:52;97147.89;;;4.37;46.31
47080;BME280;33067;49.296;14.470;2024-03-08T04:40:17;97146.76;;;4.37;46.12
47080;BME280;33067;49.296;14.470;2024-03-08T04:42:43;97145.96;;;4.48;45.78
47080;BME280;33067;49.296;14.470;2024-03-08T04:45:09;97153.68;;;4.03;46.43
47080;BME280;33067;49.296;14.470;2024-03-08T04:47:34;97151.66;;;4.14;46.41
47080;BME280;33067;49.296;14.470;2024-03-08T04:49:59;97148.64;;;3.70;46.30
47080;BME280;33067;49.296;14.470;2024-03-08T04:52:24;97146.42;;;4.72;45.22
47080;BME280;33067;49.296;14.470;2024-03-08T04:54:50;97146.86;;;4.72;44.58
47080;BME280;33067;49.296;14.470;2024-03-08T04:57:15;97144.37;;;4.73;44.83
47080;BME280;33067;49.296;14.470;2024-03-08T04:59:40;97140.28;;;5.40;43.67
47080;BME280;33067;49.296;14.470;2024-03-08T05:02:06;97140.18;;;4.86;44.75
47080;BME280;33067;49.296;14.470;2024-03-08T05:04:31;97141.10;;;5.19;43.88
47080;BME280;33067;49.296;14.470;2024-03-08T05:06:57;97142.77;;;5.04;43.70
47080;BME280;33067;49.296;14.470;2024-03-08T05:09:23;97141.19;;;5.47;42.66
47080;BME280;33067;49.296;14.470;2024-03-08T05:11:48;97141.34;;;4.85;43.56
47080;BME280;33067;49.296;14.470;2024-03-08T05:14:14;97140.89;;;5.24;43.31
47080;BME280;33067;49.296;14.470;2024-03-08T05:16:39;97140.11;;;5.16;43.13
47080;BME280;33067;49.296;14.470;2024-03-08T05:19:04;97139.14;;;5.77;42.17
47080;BME280;33067;49.296;14.470;2024-03-08T05:21:30;97135.10;;;5.70;42.57
47080;BME280;33067;49.296;14.470;2024-03-08T05:23:55;97131.29;;;5.63;42.02
47080;BME280;33067;49.296;14.470;2024-03-08T05:26:20;97126.30;;;6.02;42.12
47080;BME280;33067;49.296;14.470;2024-03-08T05:28:45;97122.07;;;5.76;41.93
47080;BME280;33067;49.296;14.470;2024-03-08T05:31:14;97128.29;;;6.04;41.83
47080;BME280;33067;49.296;14.470;2024-03-08T05:33:36;97133.14;;;5.87;41.39
47080;BME280;33067;49.296;14.470;2024-03-08T05:36:02;97132.65;;;5.17;42.34
47080;BME280;33067;49.296;14.470;2024-03-08T05:38:27;97133.88;;;5.04;42.45
47080;BME280;33067;49.296;14.470;2024-03-08T05:40:52;97131.07;;;4.70;42.68
47080;BME280;33067;49.296;14.470;2024-03-08T05:43:17;97129.07;;;4.25;43.74
47080;BME280;33067;49.296;14.470;2024-03-08T05:45:43;97131.71;;;4.34;43.18
47080;BME280;33067;49.296;14.470;2024-03-08T05:48:08;97132.22;;;4.67;43.24
47080;BME280;33067;49.296;14.470;2024-03-08T05:50:34;97131.73;;;4.52;43.13
47080;BME280;33067;49.296;14.470;2024-03-08T05:52:59;97133.15;;;4.32;43.67
47080;BME280;33067;49.296;14.470;2024-03-08T05:55:24;97133.32;;;4.43;43.55
47080;BME280;33067;49.296;14.470;2024-03-08T05:57:50;97134.43;;;4.56;43.29
47080;BME280;33067;49.296;14.470;2024-03-08T06:00:17;97133.46;;;4.92;42.54
47080;BME280;33067;49.296;14.470;2024-03-08T06:02:42;97131.17;;;5.20;42.08
47080;BME280;33067;49.296;14.470;2024-03-08T06:05:09;97134.30;;;4.26;43.41
47080;BME280;33067;49.296;14.470;2024-03-08T06:07:33;97134.04;;;4.45;41.89
47080;BME280;33067;49.296;14.470;2024-03-08T06:09:58;97137.22;;;4.82;41.47
47080;BME280;33067;49.296;14.470;2024-03-08T06:12:24;97137.24;;;5.14;41.47
47080;BME280;33067;49.296;14.470;2024-03-08T06:14:49;97138.42;;;4.60;42.53
47080;BME280;33067;49.296;14.470;2024-03-08T06:17:14;97135.74;;;5.04;41.61
47080;BME280;33067;49.296;14.470;2024-03-08T06:19:40;97136.91;;;5.30;40.87
47080;BME280;33067;49.296;14.470;2024-03-08T06:22:05;97134.31;;;4.77;42.05
47080;BME280;33067;49.296;14.470;2024-03-08T06:24:31;97132.78;;;5.32;41.86
47080;BME280;33067;49.296;14.470;2024-03-08T06:26:56;97132.24;;;5.50;41.45
47080;BME280;33067;49.296;14.470;2024-03-08T06:29:21;97134.29;;;5.59;41.03
47080;BME280;33067;49.296;14.470;2024-03-08T06:31:46;97135.67;;;5.55;40.78
47080;BME280;33067;49.296;14.470;2024-03-08T06:34:11;97138.64;;;5.90;40.38
47080;BME280;33067;49.296;14.470;2024-03-08T06:36:37;97141.17;;;5.64;40.61
47080;BME280;33067;49.296;14.470;2024-03-08T06:39:03;97144.60;;;6.16;40.60
47080;BME280;33067;49.296;14.470;2024-03-08T06:41:28;97146.20;;;6.01;39.81
47080;BME280;33067;49.296;14.470;2024-03-08T06:43:53;97146.47;;;5.96;40.03
47080;BME280;33067;49.296;14.470;2024-03-08T06:46:18;97144.55;;;6.63;38.92
47080;BME280;33067;49.296;14.470;2024-03-08T06:48:43;97144.76;;;6.80;38.76
47080;BME280;33067;49.296;14.470;2024-03-08T06:51:09;97143.23;;;6.24;39.48
47080;BME280;33067;49.296;14.470;2024-03-08T06:53:34;97142.05;;;6.12;39.46
47080;BME280;33067;49.296;14.470;2024-03-08T06:55:59;97139.59;;;6.17;39.46
47080;BME280;33067;49.296;14.470;2024-03-08T06:58:25;97142.12;;;5.84;39.29
47080;BME280;33067;49.296;14.470;2024-03-08T07:00:51;97144.61;;;6.14;39.02
47080;BME280;33067;49.296;14.470;2024-03-08T07:03:17;97136.76;;;6.01;38.93
47080;BME280;33067;49.296;14.470;2024-03-08T07:05:42;97137.52;;;5.94;38.72
47080;BME280;33067;49.296;14.470;2024-03-08T07:08:07;97138.64;;;5.26;40.34
47080;BME280;33067;49.296;14.470;2024-03-08T07:10:33;97138.76;;;6.53;38.69
47080;BME280;33067;49.296;14.470;2024-03-08T07:12:59;97138.56;;;6.01;38.88
47080;BME280;33067;49.296;14.470;2024-03-08T07:15:24;97139.22;;;6.41;38.54
47080;BME280;33067;49.296;14.470;2024-03-08T07:17:49;97137.85;;;5.20;39.90
47080;BME280;33067;49.296;14.470;2024-03-08T07:20:15;97135.05;;;5.67;39.58
47080;BME280;33067;49.296;14.470;2024-03-08T07:22:39;97133.23;;;5.92;40.06
47080;BME280;33067;49.296;14.470;2024-03-08T07:25:05;97132.17;;;5.77;39.37
47080;BME280;33067;49.296;14.470;2024-03-08T07:27:30;97132.84;;;5.79;40.09
47080;BME280;33067;49.296;14.470;2024-03-08T07:29:55;97131.66;;;5.71;39.97
47080;BME280;33067;49.296;14.470;2024-03-08T07:32:21;97140.10;;;5.96;39.48
47080;BME280;33067;49.296;14.470;2024-03-08T07:34:46;97127.72;;;5.36;40.63
47080;BME280;33067;49.296;14.470;2024-03-08T07:37:11;97129.22;;;5.35;40.71
47080;BME280;33067;49.296;14.470;2024-03-08T07:39:37;97129.16;;;5.34;40.86
47080;BME280;33067;49.296;14.470;2024-03-08T07:42:03;97125.60;;;4.74;41.45
47080;BME280;33067;49.296;14.470;2024-03-08T07:44:28;97125.12;;;4.48;41.91
47080;BME280;33067;49.296;14.470;2024-03-08T07:46:53;97125.62;;;4.21;42.69
47080;BME280;33067;49.296;14.470;2024-03-08T07:49:19;97131.46;;;3.24;44.30
47080;BME280;33067;49.296;14.470;2024-03-08T07:51:44;97131.53;;;4.08;44.11
47080;BME280;33067;49.296;14.470;2024-03-08T07:54:10;97124.42;;;4.01;43.49
47080;BME280;33067;49.296;14.470;2024-03-08T07:56:35;97124.19;;;4.37;42.92
47080;BME280;33067;49.296;14.470;2024-03-08T07:59:00;97121.09;;;4.49;42.53
47080;BME280;33067;49.296;14.470;2024-03-08T08:01:26;97122.69;;;4.42;42.99
47080;BME280;33067;49.296;14.470;2024-03-08T08:03:52;97120.28;;;4.87;42.62
47080;BME280;33067;49.296;14.470;2024-03-08T08:06:17;97118.01;;;4.53;42.31
47080;BME280;33067;49.296;14.470;2024-03-08T08:08:43;97114.29;;;4.61;42.48
47080;BME280;33067;49.296;14.470;2024-03-08T08:11:07;97119.02;;;4.59;42.42
47080;BME280;33067;49.296;14.470;2024-03-08T08:13:32;97115.42;;;5.17;41.24
47080;BME280;33067;49.296;14.470;2024-03-08T08:15:58;97117.74;;;4.34;42.69
47080;BME280;33067;49.296;14.470;2024-03-08T08:18:23;97119.51;;;4.61;42.58
47080;BME280;33067;49.296;14.470;2024-03-08T08:20:49;97117.07;;;4.59;43.34
47080;BME280;33067;49.296;14.470;2024-03-08T08:23:14;97116.38;;;4.72;43.05
47080;BME280;33067;49.296;14.470;2024-03-08T08:25:39;97112.49;;;4.88;42.30
47080;BME280;33067;49.296;14.470;2024-03-08T08:28:05;97111.09;;;5.77;40.99
47080;BME280;33067;49.296;14.470;2024-03-08T08:30:31;97115.04;;;4.73;42.54
47080;BME280;33067;49.296;14.470;2024-03-08T08:32:57;97110.24;;;5.14;41.75
47080;BME280;33067;49.296;14.470;2024-03-08T08:35:22;97110.82;;;4.94;42.35
47080;BME280;33067;49.296;14.470;2024-03-08T08:37:48;97110.83;;;4.68;43.11
47080;BME280;33067;49.296;14.470;2024-03-08T08:40:14;97102.14;;;5.21;42.37
47080;BME280;33067;49.296;14.470;2024-03-08T08:42:39;97100.70;;;5.49;41.54
47080;BME280;33067;49.296;14.470;2024-03-08T08:45:05;97098.30;;;5.16;42.53
47080;BME280;33067;49.296;14.470;2024-03-08T08:47:30;97097.43;;;5.35;42.28
47080;BME280;33067;49.296;14.470;2024-03-08T08:49:55;97095.65;;;5.73;40.86
47080;BME280;33067;49.296;14.470;2024-03-08T08:52:20;97090.71;;;6.19;40.20
47080;BME280;33067;49.296;14.470;2024-03-08T08:54:46;97089.83;;;6.25;39.54
47080;BME280;33067;49.296;14.470;2024-03-08T08:57:12;97087.27;;;6.26;39.33
47080;BME280;33067;49.296;14.470;2024-03-08T08:59:37;97089.54;;;5.99;40.28
47080;BME280;33067;49.296;14.470;2024-03-08T09:02:02;97095.26;;;5.41;41.19
47080;BME280;33067;49.296;14.470;2024-03-08T09:04:27;97086.56;;;6.00;40.92
47080;BME280;33067;49.296;14.470;2024-03-08T09:06:53;97082.73;;;5.80;41.88
47080;BME280;33067;49.296;14.470;2024-03-08T09:09:18;97080.09;;;6.24;40.77
47080;BME280;33067;49.296;14.470;2024-03-08T09:11:44;97074.44;;;6.67;39.71
47080;BME280;33067;49.296;14.470;2024-03-08T09:14:09;97076.00;;;7.66;37.90
47080;BME280;33067;49.296;14.470;2024-03-08T09:16:35;97072.01;;;6.70;38.51
47080;BME280;33067;49.296;14.470;2024-03-08T09:19:00;97066.33;;;6.77;38.74
47080;BME280;33067;49.296;14.470;2024-03-08T09:21:25;97063.55;;;6.73;39.82
47080;BME280;33067;49.296;14.470;2024-03-08T09:23:51;97068.45;;;6.62;40.34
47080;BME280;33067;49.296;14.470;2024-03-08T09:26:16;97060.09;;;6.49;39.88
47080;BME280;33067;49.296;14.470;2024-03-08T09:28:42;97065.08;;;5.53;40.16
47080;BME280;33067;49.296;14.470;2024-03-08T09:31:07;97061.17;;;5.40;41.81
47080;BME280;33067;49.296;14.470;2024-03-08T09:33:33;97063.35;;;4.74;42.66
47080;BME280;33067;49.296;14.470;2024-03-08T09:35:58;97058.42;;;5.00;42.58
47080;BME280;33067;49.296;14.470;2024-03-08T09:38:24;97053.76;;;5.38;42.88
47080;BME280;33067;49.296;14.470;2024-03-08T09:40:49;97045.07;;;5.64;42.26
47080;BME280;33067;49.296;14.470;2024-03-08T09:43:14;97047.23;;;5.23;41.68
47080;BME280;33067;49.296;14.470;2024-03-08T09:45:40;97044.04;;;6.15;41.12
47080;BME280;33067;49.296;14.470;2024-03-08T09:48:07;97044.31;;;6.36;41.15
47080;BME280;33067;49.296;14.470;2024-03-08T09:50:31;97039.23;;;7.08;39.64
47080;BME280;33067;49.296;14.470;2024-03-08T09:52:56;97041.03;;;6.65;39.98
47080;BME280;33067;49.296;14.470;2024-03-08T09:55:22;97038.13;;;6.08;40.88
47080;BME280;33067;49.296;14.470;2024-03-08T09:57:48;97038.24;;;6.86;39.58
47080;BME280;33067;49.296;14.470;2024-03-08T10:00:13;97039.65;;;6.83;39.68
47080;BME280;33067;49.296;14.470;2024-03-08T10:02:38;97039.21;;;6.42;40.36
47080;BME280;33067;49.296;14.470;2024-03-08T10:05:05;97045.56;;;5.75;41.17
47080;BME280;33067;49.296;14.470;2024-03-08T10:07:29;97032.60;;;6.42;41.25
47080;BME280;33067;49.296;14.470;2024-03-08T10:09:55;97036.83;;;5.58;42.03
47080;BME280;33067;49.296;14.470;2024-03-08T10:12:20;97036.65;;;6.03;41.36
47080;BME280;33067;49.296;14.470;2024-03-08T10:14:46;97031.79;;;5.38;43.63
47080;BME280;33067;49.296;14.470;2024-03-08T10:17:11;97024.32;;;6.07;41.98
47080;BME280;33067;49.296;14.470;2024-03-08T10:19:37;97028.92;;;5.18;43.23
47080;BME280;33067;49.296;14.470;2024-03-08T10:22:03;97022.04;;;6.00;41.76
47080;BME280;33067;49.296;14.470;2024-03-08T10:24:29;97023.03;;;6.00;41.40
47080;BME280;33067;49.296;14.470;2024-03-08T10:26:58;97017.16;;;6.83;40.96
47080;BME280;33067;49.296;14.470;2024-03-08T10:29:19;97026.21;;;7.36;40.49
47080;BME280;33067;49.296;14.470;2024-03-08T10:31:45;97016.65;;;6.40;41.49
47080;BME280;33067;49.296;14.470;2024-03-08T10:34:11;97014.82;;;7.42;39.90
47080;BME280;33067;49.296;14.470;2024-03-08T10:36:36;97018.85;;;6.51;40.19
47080;BME280;33067;49.296;14.470;2024-03-08T10:39:02;97013.67;;;6.33;41.03
47080;BME280;33067;49.296;14.470;2024-03-08T10:41:28;97019.40;;;6.51;41.36
47080;BME280;33067;49.296;14.470;2024-03-08T10:44:05;97008.94;;;7.10;40.46
47080;BME280;33067;49.296;14.470;2024-03-08T10:46:30;97018.05;;;5.87;41.40
47080;BME280;33067;49.296;14.470;2024-03-08T10:48:44;97010.96;;;5.74;42.36
47080;BME280;33067;49.296;14.470;2024-03-08T10:51:11;97023.55;;;4.84;44.05
47080;BME280;33067;49.296;14.470;2024-03-08T10:53:34;97020.49;;;5.13;43.89
47080;BME280;33067;49.296;14.470;2024-03-08T10:55:59;97031.38;;;5.30;44.07
47080;BME280;33067;49.296;14.470;2024-03-08T10:58:25;97012.63;;;5.73;43.32
47080;BME280;33067;49.296;14.470;2024-03-08T11:00:50;97013.71;;;5.24;43.85
47080;BME280;33067;49.296;14.470;2024-03-08T11:05:41;97020.85;;;5.01;44.85
47080;BME280;33067;49.296;14.470;2024-03-08T11:08:16;97011.52;;;5.09;44.37
47080;BME280;33067;49.296;14.470;2024-03-08T11:10:31;97002.06;;;5.10;44.52
47080;BME280;33067;49.296;14.470;2024-03-08T11:12:57;96999.42;;;5.86;42.98
47080;BME280;33067;49.296;14.470;2024-03-08T11:15:24;97005.43;;;5.48;43.64
47080;BME280;33067;49.296;14.470;2024-03-08T11:17:48;97004.41;;;5.57;44.08
47080;BME280;33067;49.296;14.470;2024-03-08T11:20:14;97006.00;;;5.22;44.56
47080;BME280;33067;49.296;14.470;2024-03-08T11:22:39;97001.84;;;4.59;46.33
47080;BME280;33067;49.296;14.470;2024-03-08T11:25:05;96991.29;;;4.92;45.54
47080;BME280;33067;49.296;14.470;2024-03-08T11:27:30;96995.82;;;5.47;44.23
47080;BME280;33067;49.296;14.470;2024-03-08T11:30:00;96990.49;;;4.92;44.17
47080;BME280;33067;49.296;14.470;2024-03-08T11:32:21;96992.83;;;5.58;43.19
47080;BME280;33067;49.296;14.470;2024-03-08T11:34:47;96988.41;;;4.77;45.13
47080;BME280;33067;49.296;14.470;2024-03-08T11:37:12;96988.87;;;5.03;44.82
47080;BME280;33067;49.296;14.470;2024-03-08T11:39:36;96981.59;;;5.40;44.27
47080;BME280;33067;49.296;14.470;2024-03-08T11:42:02;96985.75;;;5.43;44.12
47080;BME280;33067;49.296;14.470;2024-03-08T11:44:27;96981.02;;;5.25;43.70
47080;BME280;33067;49.296;14.470;2024-03-08T11:46:53;96975.07;;;5.06;44.74
47080;BME280;33067;49.296;14.470;2024-03-08T11:49:19;96974.17;;;5.14;44.58
47080;BME280;33067;49.296;14.470;2024-03-08T11:51:44;96968.85;;;6.15;42.67
47080;BME280;33067;49.296;14.470;2024-03-08T11:54:11;96975.43;;;5.40;44.21
47080;BME280;33067;49.296;14.470;2024-03-08T11:56:35;96966.13;;;5.64;43.50
47080;BME280;33067;49.296;14.470;2024-03-08T11:59:01;96956.98;;;5.90;43.57
47080;BME280;33067;49.296;14.470;2024-03-08T12:01:26;96964.59;;;5.45;43.83
47080;BME280;33067;49.296;14.470;2024-03-08T12:03:53;96955.23;;;5.68;43.70
47080;BME280;33067;49.296;14.470;2024-03-08T12:06:16;96955.54;;;6.39;41.99
47080;BME280;33067;49.296;14.470;2024-03-08T12:08:42;96952.68;;;6.48;42.42
47080;BME280;33067;49.296;14.470;2024-03-08T12:11:07;96950.95;;;5.30;43.83
47080;BME280;33067;49.296;14.470;2024-03-08T12:13:34;96944.27;;;5.38;43.88
47080;BME280;33067;49.296;14.470;2024-03-08T12:15:59;96949.16;;;5.87;43.72
47080;BME280;33067;49.296;14.470;2024-03-08T12:18:24;96950.63;;;5.48;44.39
47080;BME280;33067;49.296;14.470;2024-03-08T12:20:49;96944.59;;;5.09;44.32
47080;BME280;33067;49.296;14.470;2024-03-08T12:23:15;96938.75;;;5.31;44.19
47080;BME280;33067;49.296;14.470;2024-03-08T12:25:40;96928.92;;;5.64;43.05
47080;BME280;33067;49.296;14.470;2024-03-08T12:28:07;96927.39;;;6.11;43.03
47080;BME280;33067;49.296;14.470;2024-03-08T12:30:32;96926.06;;;6.36;42.74
47080;BME280;33067;49.296;14.470;2024-03-08T12:32:58;96934.45;;;6.17;42.27
47080;BME280;33067;49.296;14.470;2024-03-08T12:35:22;96929.14;;;6.04;41.29
47080;BME280;33067;49.296;14.470;2024-03-08T12:37:48;96924.45;;;6.36;42.39
47080;BME280;33067;49.296;14.470;2024-03-08T12:40:13;96921.33;;;5.93;42.58
47080;BME280;33067;49.296;14.470;2024-03-08T12:42:38;96911.33;;;6.12;42.96
47080;BME280;33067;49.296;14.470;2024-03-08T12:45:03;96910.56;;;6.53;41.64
47080;BME280;33067;49.296;14.470;2024-03-08T12:47:29;96924.45;;;6.36;42.39
47080;BME280;33067;49.296;14.470;2024-03-08T12:49:54;96912.88;;;5.95;43.49
47080;BME280;33067;49.296;14.470;2024-03-08T12:52:19;96904.11;;;6.00;43.43
47080;BME280;33067;49.296;14.470;2024-03-08T12:54:45;96914.10;;;5.42;43.30
47080;BME280;33067;49.296;14.470;2024-03-08T12:57:10;96904.07;;;6.08;42.98